Flight Track Log - Related Links

Times and Time Zones

All times are in EDT time to prevent confusion due to time zone crossing. See the UPS1122 flight status page for this flight to view local times or setup timezone preferences in your user account.

Time Position Orientation Groundspeed Altitude Reporting Facility
EDT Latitude Longitude Course Direction KTS MPH feet Rate Location/Type
Sat 04:34:10 AM 38.1840 -85.7300 67° East 72 83  Level FlightAware ADS-B
Sat 04:34:38 AM 38.1680 -85.7250 166° South 153 176 1,000 2,250 Climbing FlightAware ADS-B
Sat 04:34:58 AM 38.1540 -85.7190 161° South 162 186 1,800 1,800 Climbing FlightAware ADS-B
Sat 04:35:18 AM 38.1390 -85.7140 165° South 181 208 2,200 1,500 Climbing FlightAware ADS-B
Sat 04:35:38 AM 38.1210 -85.7070 163° South 196 226 2,800 1,857 Climbing FlightAware ADS-B
Sat 04:36:00 AM 38.1010 -85.7000 165° South 208 239 3,500 1,902 Climbing FlightAware ADS-B
Sat 04:36:19 AM 38.0840 -85.6940 164° South 218 251 4,100 1,929 Climbing FlightAware ADS-B
Sat 04:36:28 AM 38.0740 -85.6880 155° Southeast 232 267 4,400 1,765 Climbing FlightAware ADS-B
Sat 04:36:36 AM 38.0670 -85.6830 151° Southeast 241 277 4,600 1,500 Climbing FlightAware ADS-B
Sat 04:36:44 AM 38.0610 -85.6750 134° Southeast 251 289 4,800 1,500 Climbing FlightAware ADS-B
Sat 04:36:48 AM 38.0580 -85.6690 122° Southeast 258 297 4,900 1,385 Climbing FlightAware ADS-B
Sat 04:36:57 AM 38.0540 -85.6570 113° Southeast 271 312 5,100 1,500 Climbing FlightAware ADS-B
Sat 04:37:04 AM 38.0520 -85.6450 102° East 280 322 5,300 2,129 Climbing FlightAware ADS-B
Sat 04:37:28 AM 38.0530 -85.6040 88° East 294 338 6,200 2,400 Climbing FlightAware ADS-B
Sat 04:37:54 AM 38.0510 -85.5590 93° East 302 348 7,300 2,429 Climbing FlightAware ADS-B
Sat 04:38:10 AM 38.0500 -85.5310 93° East 307 353 7,900 2,308 Climbing FlightAware ADS-B
Sat 04:38:33 AM 38.0560 -85.4910 79° East 310 357 8,800 2,438 Climbing FlightAware ADS-B
Sat 04:38:42 AM 38.0620 -85.4750 65° Northeast 311 358 9,200 2,372 Climbing FlightAware ADS-B
Sat 04:39:16 AM 38.0870 -85.4210 60° Northeast 321 369 10,500 1,714 Climbing FlightAware ADS-B
Sat 04:39:52 AM 38.1150 -85.3580 61° Northeast 359 413 11,200 1,083 Climbing FlightAware ADS-B
Sat 04:40:28 AM 38.1480 -85.2890 59° Northeast 391 450 11,800 917 Climbing FlightAware ADS-B
Sat 04:41:04 AM 38.1820 -85.2140 60° Northeast 421 484 12,300 1,147 Climbing FlightAware ADS-B
Sat 04:41:36 AM 38.2130 -85.1440 61° Northeast 433 498 13,100 1,688 Climbing FlightAware ADS-B
Sat 04:42:08 AM 38.2460 -85.0710 60° Northeast 440 506 14,100 1,750 Climbing FlightAware ADS-B
Sat 04:42:48 AM 38.2870 -84.9820 60° Northeast 445 512 15,200 1,750 Climbing FlightAware ADS-B
Sat 04:43:20 AM 38.3210 -84.9080 60° Northeast 449 517 16,200 1,701 Climbing FlightAware ADS-B
Sat 04:43:55 AM 38.3570 -84.8290 60° Northeast 452 520 17,100 1,583 Climbing FlightAware ADS-B
Sat 04:44:32 AM 38.3970 -84.7410 60° Northeast 457 526 18,100 1,478 Climbing FlightAware ADS-B
Sat 04:45:04 AM 38.4320 -84.6630 60° Northeast 462 532 18,800 1,333 Climbing FlightAware ADS-B
Sat 04:45:44 AM 38.4740 -84.5700 60° Northeast 467 537 19,700 1,417 Climbing FlightAware ADS-B
Sat 04:46:16 AM 38.5100 -84.4900 60° Northeast 470 541 20,500 1,304 Climbing FlightAware ADS-B
Sat 04:46:53 AM 38.5490 -84.4030 60° Northeast 477 549 21,200 1,216 Climbing FlightAware ADS-B
Sat 04:47:30 AM 38.5920 -84.3090 60° Northeast 483 556 22,000 1,412 Climbing FlightAware ADS-B
Sat 04:48:01 AM 38.6260 -84.2320 61° Northeast 489 563 22,800 1,545 Climbing FlightAware ADS-B
Sat 04:48:36 AM 38.6650 -84.1440 60° Northeast 495 570 23,700 1,397 Climbing FlightAware ADS-B
Sat 04:49:14 AM 38.7090 -84.0460 60° Northeast 499 574 24,500 1,200 Climbing FlightAware ADS-B
Sat 04:49:46 AM 38.7460 -83.9620 61° Northeast 504 580 25,100 1,059 Climbing FlightAware ADS-B
Sat 04:50:22 AM 38.7880 -83.8680 60° Northeast 510 587 25,700 1,059 Climbing FlightAware ADS-B
Sat 04:50:54 AM 38.8260 -83.7820 60° Northeast 515 593 26,300 1,676 Climbing FlightAware ADS-B
Sat 04:51:30 AM 38.8680 -83.6860 61° Northeast 501 577 27,600 1,754 Climbing FlightAware ADS-B
Sat 04:51:59 AM 38.9010 -83.6100 61° Northeast 505 581 28,200 1,200 Climbing FlightAware ADS-B
Sat 04:52:35 AM 38.9420 -83.5170 60° Northeast 506 582 28,900 1,250 Climbing FlightAware ADS-B
Sat 04:53:11 AM 38.9830 -83.4230 61° Northeast 507 583 29,700 1,324 Climbing FlightAware ADS-B
Sat 04:53:43 AM 39.0190 -83.3400 61° Northeast 508 585 30,400 1,403 Climbing FlightAware ADS-B
Sat 04:54:28 AM 39.0710 -83.2180 61° Northeast 507 583 31,500 1,448 Climbing FlightAware ADS-B
Sat 04:55:10 AM 39.1190 -83.1080 61° Northeast 505 581 32,500 1,216 Climbing FlightAware ADS-B
Sat 04:55:42 AM 39.1550 -83.0240 61° Northeast 504 580 33,000 441 Climbing FlightAware ADS-B
Sat 04:56:18 AM 39.1960 -82.9270 61° Northeast 518 596 33,000  Level FlightAware ADS-B
Sat 04:56:55 AM 39.2390 -82.8260 61° Northeast 527 606 33,000  Level FlightAware ADS-B
Sat 04:57:31 AM 39.2820 -82.7250 61° Northeast 528 608 33,000  Level FlightAware ADS-B
Sat 04:58:03 AM 39.3200 -82.6350 61° Northeast 525 604 33,000  Level FlightAware ADS-B
Sat 04:58:49 AM 39.3730 -82.5090 61° Northeast 522 601 33,000  Level FlightAware ADS-B
Sat 04:59:25 AM 39.4140 -82.4110 62° Northeast 519 597 33,000  Level FlightAware ADS-B
Sat 04:59:57 AM 39.4520 -82.3220 61° Northeast 522 601 33,000  Level FlightAware ADS-B
Sat 05:00:29 AM 39.4880 -82.2350 62° Northeast 522 601 33,000  Level FlightAware ADS-B
Sat 05:01:07 AM 39.5330 -82.1290 61° Northeast 521 600 33,000  Level FlightAware ADS-B
Sat 05:01:41 AM 39.5710 -82.0370 62° Northeast 521 600 33,000  Level FlightAware ADS-B
Sat 05:02:17 AM 39.6120 -81.9380 62° Northeast 521 600 33,000  Level FlightAware ADS-B
Sat 05:02:53 AM 39.6530 -81.8380 62° Northeast 519 597 33,000  Level FlightAware ADS-B
Sat 05:03:29 AM 39.6950 -81.7380 61° Northeast 520 598 33,000  Level FlightAware ADS-B
Sat 05:04:01 AM 39.7310 -81.6480 62° Northeast 521 600 33,000  Level FlightAware ADS-B
Sat 05:04:33 AM 39.7680 -81.5590 62° Northeast 522 601 33,000  Level FlightAware ADS-B
Sat 05:05:11 AM 39.8110 -81.4530 62° Northeast 522 601 33,000  Level FlightAware ADS-B
Sat 05:05:47 AM 39.8510 -81.3550 62° Northeast 523 602 33,000  Level FlightAware ADS-B
Sat 05:06:23 AM 39.8930 -81.2520 62° Northeast 523 602 33,000  Level FlightAware ADS-B
Sat 05:06:57 AM 39.9310 -81.1580 62° Northeast 523 602 33,000  Level FlightAware ADS-B
Sat 05:07:33 AM 39.9720 -81.0560 62° Northeast 523 602 33,000  Level FlightAware ADS-B
Sat 05:08:09 AM 40.0120 -80.9560 62° Northeast 523 602 33,000  Level FlightAware ADS-B
Sat 05:08:41 AM 40.0480 -80.8680 62° Northeast 523 602 33,000  Level FlightAware ADS-B
Sat 05:09:17 AM 40.0870 -80.7690 63° Northeast 523 602 33,000  Level FlightAware ADS-B
Sat 05:09:53 AM 40.1290 -80.6650 62° Northeast 523 602 33,000  Level FlightAware ADS-B
Sat 05:10:29 AM 40.1690 -80.5630 63° Northeast 524 603 33,000  Level FlightAware ADS-B
Sat 05:11:05 AM 40.2100 -80.4590 63° Northeast 523 602 33,000  Level FlightAware ADS-B
Sat 05:11:37 AM 40.2440 -80.3720 63° Northeast 522 601 33,000  Level FlightAware ADS-B
Sat 05:12:11 AM 40.2830 -80.2730 63° Northeast 521 600 33,000  Level FlightAware ADS-B
Sat 05:12:48 AM 40.3240 -80.1690 63° Northeast 519 597 33,000  Level FlightAware ADS-B
Sat 05:13:22 AM 40.3590 -80.0790 63° Northeast 518 596 33,000  Level FlightAware ADS-B
Sat 05:13:58 AM 40.3990 -79.9740 63° Northeast 516 594 33,000  Level FlightAware ADS-B
Sat 05:14:34 AM 40.4380 -79.8730 63° Northeast 518 596 33,000  Level FlightAware ADS-B
Sat 05:15:09 AM 40.4760 -79.7750 63° Northeast 519 597 33,000  Level FlightAware ADS-B
Sat 05:15:41 AM 40.5110 -79.6830 63° Northeast 521 600 33,000  Level FlightAware ADS-B
Sat 05:16:16 AM 40.5490 -79.5850 63° Northeast 522 601 33,000  Level FlightAware ADS-B
Sat 05:16:54 AM 40.5900 -79.4750 64° Northeast 525 604 33,000  Level FlightAware ADS-B
Sat 05:17:29 AM 40.6290 -79.3750 63° Northeast 527 606 33,000  Level FlightAware ADS-B
Sat 05:18:01 AM 40.6640 -79.2810 64° Northeast 529 609 33,000  Level FlightAware ADS-B
Sat 05:18:33 AM 40.7000 -79.1870 63° Northeast 530 610 33,000  Level FlightAware ADS-B
Sat 05:19:13 AM 40.7430 -79.0730 64° Northeast 530 610 33,000  Level FlightAware ADS-B
Sat 05:19:49 AM 40.7800 -78.9710 64° Northeast 530 610 33,000  Level FlightAware ADS-B
Sat 05:20:25 AM 40.8210 -78.8600 64° Northeast 532 612 33,000  Level FlightAware ADS-B
Sat 05:20:51 AM 40.8480 -78.7870 64° Northeast 533 613 33,000  Level FlightAware ADS-B
Sat 05:21:34 AM 40.8880 -78.6770 64° Northeast 534 615 33,000  Level FlightAware ADS-B
Sat 05:22:09 AM 40.9250 -78.5780 64° Northeast 534 615 33,000  Level FlightAware ADS-B
Sat 05:22:59 AM 40.9750 -78.4410 64° Northeast 535 616 33,000  Level FlightAware ADS-B
Sat 05:23:39 AM 41.0200 -78.3200 64° Northeast 537 618 33,000  Level FlightAware ADS-B
Sat 05:24:15 AM 41.0530 -78.2300 64° Northeast 537 618 33,000  Level FlightAware ADS-B
Sat 05:24:51 AM 41.0860 -78.1390 64° Northeast 537 618 33,000  Level FlightAware ADS-B
Sat 05:25:27 AM 41.1190 -78.0480 64° Northeast 537 618 33,000  Level FlightAware ADS-B
Sat 05:25:58 AM 41.1847 -77.8686 64° Northeast 543 625 33,000  Level FlightAware ADS-B
Sat 05:26:42 AM 41.2327 -77.7371 64° Northeast 545 627 33,000  Level FlightAware ADS-B
Sat 05:27:13 AM 41.2665 -77.6440 64° Northeast 545 627 33,000  Level FlightAware ADS-B
Sat 05:27:43 AM 41.2910 -77.5760 64° Northeast 545 627 33,000  Level FlightAware ADS-B
Sat 05:28:09 AM 41.3278 -77.4744 64° Northeast 546 628 33,000  Level FlightAware ADS-B
Sat 05:28:48 AM 41.3711 -77.3535 64° Northeast 546 628 33,000  Level FlightAware ADS-B
Sat 05:29:19 AM 41.4039 -77.2614 65° Northeast 548 631 33,000  Level FlightAware ADS-B
Sat 05:29:49 AM 41.4371 -77.1673 65° Northeast 548 631 33,000  Level FlightAware ADS-B
Sat 05:30:20 AM 41.4701 -77.0736 65° Northeast 548 631 33,000  Level FlightAware ADS-B
Sat 05:30:51 AM 41.5037 -76.9774 65° Northeast 547 629 33,000  Level FlightAware ADS-B
Sat 05:31:22 AM 41.5363 -76.8836 65° Northeast 548 631 33,000  Level FlightAware ADS-B
Sat 05:31:52 AM 41.5687 -76.7901 65° Northeast 549 632 33,000  Level FlightAware ADS-B
Sat 05:32:24 AM 41.6021 -76.6932 65° Northeast 550 633 33,000 -97 Level FlightAware ADS-B
Sat 05:32:54 AM 41.6337 -76.6010 65° Northeast 549 632 32,900 -600 Descending FlightAware ADS-B
Sat 05:33:24 AM 41.6663 -76.5057 65° Northeast 550 633 32,400 -1,100 Descending FlightAware ADS-B
Sat 05:33:54 AM 41.6980 -76.4125 65° Northeast 552 635 31,800 -1,161 Descending FlightAware ADS-B
Sat 05:34:26 AM 41.7315 -76.3143 65° Northeast 556 640 31,200 -857 Descending FlightAware ADS-B
Sat 05:34:57 AM 41.7642 -76.2177 66° East 555 639 30,900 -590 Descending FlightAware ADS-B
Sat 05:35:27 AM 41.7960 -76.1233 66° East 552 635 30,600 -800 Descending FlightAware ADS-B
Sat 05:35:57 AM 41.8277 -76.0294 66° East 549 632 30,100 -968 Descending FlightAware ADS-B
Sat 05:36:29 AM 41.8614 -75.9287 66° East 543 625 29,600 -952 Descending FlightAware ADS-B
Sat 05:37:00 AM 41.8930 -75.8343 66° East 541 623 29,100 -880 Descending FlightAware ADS-B
Sat 05:37:44 AM 41.9380 -75.7010 66° East 534 615 28,500 -795 Descending FlightAware ADS-B
Sat 05:38:23 AM 41.9750 -75.5880 66° East 532 612 28,000 -435 Descending FlightAware ADS-B
Sat 05:38:53 AM 42.0010 -75.5090 66° East 531 611 28,000 -774 Level FlightAware ADS-B
Sat 05:39:25 AM 42.0370 -75.3990 66° East 526 605 27,200 -968 Descending FlightAware ADS-B
Sat 05:39:55 AM 42.0710 -75.3150 61° Northeast 517 595 27,000 -174 Descending FlightAware ADS-B
Sat 05:40:34 AM 42.1270 -75.2180 52° Northeast 519 597 27,000 -160 Level FlightAware ADS-B
Sat 05:41:10 AM 42.1730 -75.1180 58° Northeast 528 608 26,800 -845 Descending FlightAware ADS-B
Sat 05:41:45 AM 42.1960 -75.0030 75° East 524 603 26,000 -857 Descending FlightAware ADS-B
Sat 05:42:20 AM 42.2020 -74.9030 85° East 523 602 25,800 -1,418 Descending FlightAware ADS-B
Sat 05:42:40 AM 42.2062 -74.8211 86° East 520 598 24,700 -2,118 Descending FlightAware ADS-B
Sat 05:43:11 AM 42.2114 -74.7211 86° East 512 589 24,000 -640 Descending FlightAware ADS-B
Sat 05:43:55 AM 42.2190 -74.6070 85° East 511 588 23,900 -74 Descending FlightAware ADS-B
Sat 05:44:32 AM 42.2250 -74.5070 85° East 511 588 23,900  Level FlightAware ADS-B
Sat 05:45:08 AM 42.2310 -74.4090 85° East 511 588 23,900  Level FlightAware ADS-B
Sat 05:45:44 AM 42.2380 -74.3120 84° East 511 588 23,900  Level FlightAware ADS-B
Sat 05:46:21 AM 42.2440 -74.2120 85° East 511 588 23,900  Level FlightAware ADS-B
Sat 05:46:57 AM 42.2500 -74.1150 85° East 511 588 23,900 -3,304 Level FlightAware ADS-B
Sat 05:48:39 AM 42.2590 -73.7210 88° East 467 537 16,300 -3,864 Descending FlightAware ADS-B
Sat 05:49:09 AM 42.2630 -73.6380 86° East 459 528 15,400 -892 Descending FlightAware ADS-B
Sat 05:49:53 AM 42.2680 -73.5270 86° East 457 526 15,200 -150 Descending FlightAware ADS-B
Sat 05:50:29 AM 42.2730 -73.4400 86° East 457 526 15,200  Level FlightAware ADS-B
Sat 05:51:05 AM 42.2770 -73.3530 86° East 457 526 15,200  Level FlightAware ADS-B
Sat 05:51:41 AM 42.2820 -73.2660 86° East 457 526 15,200  Level FlightAware ADS-B
Sat 05:52:17 AM 42.2860 -73.1780 86° East 457 526 15,200  Level FlightAware ADS-B
Sat 05:52:54 AM 42.2910 -73.0890 86° East 457 526 15,200 -3,630 Level FlightAware ADS-B
Sat 05:54:16 AM 42.1972 -72.9136 86° East 327 376 8,000 -3,634 Descending Boston Center
Sat 05:55:16 AM 42.1728 -72.7986 106° East 322 371 6,600 -1,600 Descending Boston Center
Sat 05:56:16 AM 42.1500 -72.6922 106° East 310 357 4,800 -1,805 Descending Boston Center
Sat 05:57:19 AM 42.1106 -72.6025 121° Southeast 281 323 2,900 -1,122 Descending Boston Center
Sat 05:58:19 AM 42.0606 -72.5519 143° Southeast 246 283 2,500 -403 Descending Boston Center
Sat 05:59:18 AM 42.0231 -72.5797 209° Southwest 156 180 2,100 -450 Descending Boston Center
Sat 06:00:19 AM 42.0000 -72.6078 222° Southwest 130 150 1,600 -559 Descending Boston Center
Sat 06:01:16 AM 41.9792 -72.6383 227° Southwest 120 138 1,000 -667 Descending Boston Center
Sat 06:02:16 AM 41.9542 -72.6689 222° Southwest 120 138 300 -400 Descending Boston Center
Sat 06:03:16 AM 41.9333 -72.6969 225° Southwest 120 138 200 -100 Descending Boston Center

Login

Don't have an account? Register now (free) for customized features, flight alerts, and more!